createdAt,value
2022-10-16T00:01:35.861Z,87.29
2022-10-16T00:04:05.165Z,87.53
2022-10-16T00:06:33.510Z,87.11
2022-10-16T00:09:01.482Z,87.19
2022-10-16T00:11:30.739Z,87.23
2022-10-16T00:14:00.837Z,88.06
2022-10-16T00:16:29.433Z,88.07
2022-10-16T00:18:57.508Z,88.05
2022-10-16T00:21:28.842Z,88.62
2022-10-16T00:24:00.078Z,88.23
2022-10-16T00:26:29.692Z,88.59
2022-10-16T00:28:57.512Z,88.57
2022-10-16T00:31:26.249Z,88.03
2022-10-16T00:33:54.352Z,88.56
2022-10-16T00:36:24.489Z,88.68
2022-10-16T00:38:55.504Z,88.20
2022-10-16T00:41:25.001Z,87.77
2022-10-16T00:43:54.334Z,88.16
2022-10-16T00:46:24.227Z,87.79
2022-10-16T00:48:56.913Z,87.27
2022-10-16T00:51:30.377Z,88.38
2022-10-16T00:53:59.813Z,87.41
2022-10-16T00:56:28.079Z,88.29
2022-10-16T00:58:55.694Z,87.62
2022-10-16T01:01:23.657Z,87.30
2022-10-16T01:03:51.235Z,88.21
2022-10-16T01:09:13.890Z,88.76
2022-10-16T01:11:50.543Z,87.83
2022-10-16T01:14:29.708Z,88.02
2022-10-16T01:17:03.593Z,88.34
2022-10-16T01:20:02.367Z,89.78
2022-10-16T01:22:39.492Z,88.00
2022-10-16T01:25:14.567Z,88.18
2022-10-16T01:27:47.246Z,87.53
2022-10-16T01:30:20.911Z,87.35
2022-10-16T01:32:54.789Z,88.77
2022-10-16T01:35:28.499Z,89.76
2022-10-16T01:38:04.042Z,89.98
2022-10-16T01:40:35.054Z,90.35
2022-10-16T01:43:08.692Z,88.11
2022-10-16T01:45:37.872Z,89.48
2022-10-16T01:48:08.852Z,89.18
2022-10-16T01:50:41.728Z,89.64
2022-10-16T01:53:14.013Z,89.84
2022-10-16T01:55:46.708Z,88.49
2022-10-16T01:58:16.404Z,88.03
2022-10-16T02:00:46.819Z,88.57
2022-10-16T02:03:17.854Z,88.06
2022-10-16T02:05:48.402Z,86.32
2022-10-16T02:08:16.167Z,85.58
2022-10-16T02:10:44.215Z,85.45
2022-10-16T02:13:18.952Z,86.72
2022-10-16T02:15:46.771Z,86.18
2022-10-16T02:18:14.785Z,85.58
2022-10-16T02:20:51.023Z,87.41
2022-10-16T02:23:26.494Z,85.98
2022-10-16T02:25:56.389Z,85.63
2022-10-16T02:28:29.321Z,85.18
2022-10-16T02:31:01.545Z,85.01
2022-10-16T02:33:31.569Z,86.25
2022-10-16T02:35:59.981Z,87.69
2022-10-16T02:38:29.217Z,86.17
2022-10-16T02:40:56.851Z,85.54
2022-10-16T02:43:26.869Z,85.24
2022-10-16T02:45:54.437Z,85.97
2022-10-16T02:48:22.057Z,87.11
2022-10-16T02:50:49.580Z,87.05
2022-10-16T02:53:17.122Z,87.51
2022-10-16T02:55:44.778Z,87.90
2022-10-16T02:58:12.369Z,88.26
2022-10-16T03:00:41.527Z,88.37
2022-10-16T03:03:09.137Z,88.83
2022-10-16T03:05:36.874Z,89.12
2022-10-16T03:08:04.541Z,89.37
2022-10-16T03:10:32.719Z,89.90
2022-10-16T03:13:00.346Z,90.45
2022-10-16T03:15:29.112Z,90.60
2022-10-16T03:17:59.479Z,90.81
2022-10-16T03:20:27.585Z,91.18
2022-10-16T03:22:55.140Z,91.57
2022-10-16T03:25:22.692Z,91.65
2022-10-16T03:27:50.210Z,91.38
2022-10-16T03:30:18.181Z,91.27
2022-10-16T03:32:45.900Z,91.35
2022-10-16T03:35:15.077Z,91.22
2022-10-16T03:37:42.601Z,90.70
2022-10-16T03:40:10.940Z,91.21
2022-10-16T03:42:38.461Z,90.77
2022-10-16T03:45:07.139Z,91.39
2022-10-16T03:47:34.897Z,91.48
2022-10-16T03:50:02.671Z,90.95
2022-10-16T03:52:32.924Z,90.88
2022-10-16T03:55:00.555Z,90.70
2022-10-16T03:57:28.573Z,90.89
2022-10-16T03:59:56.397Z,90.91
2022-10-16T04:02:24.004Z,90.68
2022-10-16T04:04:51.563Z,90.80
2022-10-16T04:07:19.214Z,90.75
2022-10-16T04:09:48.155Z,90.21
2022-10-16T04:12:15.690Z,90.34
2022-10-16T04:14:43.235Z,90.75
2022-10-16T04:17:10.783Z,90.91
2022-10-16T04:19:38.443Z,90.31
2022-10-16T04:22:06.054Z,90.31
2022-10-16T04:24:33.779Z,89.89
2022-10-16T04:27:02.786Z,89.86
2022-10-16T04:29:30.350Z,89.97
2022-10-16T04:31:57.958Z,90.63
2022-10-16T04:34:25.657Z,91.30
2022-10-16T04:36:53.162Z,89.69
2022-10-16T04:39:20.806Z,89.26
2022-10-16T04:41:48.331Z,89.55
2022-10-16T04:44:17.229Z,88.64
2022-10-16T04:46:45.285Z,89.27
2022-10-16T04:49:12.846Z,89.49
2022-10-16T04:51:40.413Z,89.13
2022-10-16T04:54:07.975Z,89.46
2022-10-16T04:56:41.032Z,89.77
2022-10-16T04:59:08.589Z,89.68
2022-10-16T05:01:37.502Z,89.94
2022-10-16T05:04:05.262Z,90.18
2022-10-16T05:06:32.965Z,90.24
2022-10-16T05:09:00.605Z,90.31
2022-10-16T05:11:28.278Z,91.20
2022-10-16T05:13:56.079Z,90.19
2022-10-16T05:16:23.802Z,89.73
2022-10-16T05:18:56.177Z,89.81
2022-10-16T05:21:31.960Z,89.79
2022-10-16T05:23:59.562Z,90.21
2022-10-16T05:26:27.109Z,90.58
2022-10-16T05:28:54.789Z,90.64
2022-10-16T05:31:22.419Z,90.98
2022-10-16T05:36:23.950Z,91.89
2022-10-16T05:38:53.134Z,91.87
2022-10-16T05:41:22.569Z,90.83
2022-10-16T05:43:50.721Z,90.61
2022-10-16T05:46:18.594Z,89.65
2022-10-16T05:48:46.131Z,89.31
2022-10-16T05:51:16.528Z,89.77
2022-10-16T05:53:45.483Z,88.96
2022-10-16T05:56:13.710Z,88.43
2022-10-16T05:58:42.397Z,89.26
2022-10-16T06:01:13.124Z,88.35
2022-10-16T06:03:41.151Z,88.46
2022-10-16T06:06:12.825Z,88.75
2022-10-16T06:08:41.146Z,89.06
2022-10-16T06:11:11.714Z,88.77
2022-10-16T06:13:39.864Z,89.21
2022-10-16T06:16:08.508Z,89.10
2022-10-16T06:18:36.051Z,89.58
2022-10-16T06:21:09.340Z,89.07
2022-10-16T06:23:36.970Z,89.90
2022-10-16T06:26:10.497Z,90.43
2022-10-16T06:28:38.302Z,90.30
2022-10-16T06:31:08.483Z,89.01
2022-10-16T06:33:36.744Z,89.52
2022-10-16T06:36:04.871Z,90.23
2022-10-16T06:38:32.581Z,89.65
2022-10-16T06:41:00.634Z,89.45
2022-10-16T06:43:32.953Z,89.64
2022-10-16T06:46:02.342Z,89.56
2022-10-16T06:48:30.953Z,89.48
2022-10-16T06:51:00.551Z,89.47
2022-10-16T06:53:31.386Z,89.56
2022-10-16T06:56:09.666Z,89.78
2022-10-16T06:58:39.094Z,89.71
2022-10-16T07:01:07.893Z,88.88
2022-10-16T07:03:37.737Z,88.46
2022-10-16T07:06:06.597Z,89.01
2022-10-16T07:08:34.511Z,90.08
2022-10-16T07:11:02.559Z,88.93
2022-10-16T07:13:30.547Z,88.38
2022-10-16T07:15:59.624Z,88.57
2022-10-16T07:21:06.320Z,89.51
2022-10-16T07:23:34.002Z,88.82
2022-10-16T07:26:01.609Z,88.21
2022-10-16T07:28:29.633Z,87.42
2022-10-16T07:31:02.015Z,88.25
2022-10-16T07:33:29.582Z,87.69
2022-10-16T07:35:57.445Z,87.56
2022-10-16T07:38:25.281Z,88.01
2022-10-16T07:40:58.280Z,87.69
2022-10-16T07:43:25.873Z,87.18
2022-10-16T07:45:53.801Z,86.37
2022-10-16T07:48:23.873Z,87.35
2022-10-16T07:50:51.415Z,85.53
2022-10-16T07:53:20.520Z,86.51
2022-10-16T07:55:49.926Z,87.84
2022-10-16T07:58:17.494Z,89.75
2022-10-16T08:00:45.051Z,87.76
2022-10-16T08:03:12.603Z,88.11
2022-10-16T08:05:41.625Z,86.46
2022-10-16T08:08:14.849Z,87.22
2022-10-16T08:10:42.818Z,87.68
2022-10-16T08:13:10.570Z,85.21
2022-10-16T08:15:38.153Z,87.69
2022-10-16T08:18:07.404Z,87.85
2022-10-16T08:20:35.567Z,86.58
2022-10-16T08:23:04.637Z,87.58
2022-10-16T08:25:32.197Z,88.16
2022-10-16T08:27:59.723Z,88.22
2022-10-16T08:30:27.298Z,90.00
2022-10-16T08:32:54.895Z,90.25
2022-10-16T08:35:22.466Z,90.87
2022-10-16T08:37:49.990Z,91.25
2022-10-16T08:40:21.651Z,90.93
2022-10-16T08:43:06.512Z,90.35
2022-10-16T08:45:45.730Z,89.39
2022-10-16T08:48:21.970Z,85.05
2022-10-16T08:50:51.225Z,85.02
2022-10-16T08:53:24.563Z,79.21
2022-10-16T08:55:55.065Z,78.94
2022-10-16T08:58:24.804Z,78.50
2022-10-16T09:00:55.709Z,75.86
2022-10-16T09:03:39.552Z,74.56
2022-10-16T09:06:28.562Z,77.03
2022-10-16T09:09:16.950Z,74.82
2022-10-16T09:11:55.105Z,75.60
2022-10-16T09:14:40.002Z,75.18
2022-10-16T09:17:25.038Z,73.58
2022-10-16T09:19:58.169Z,71.93
2022-10-16T09:22:29.967Z,70.49
2022-10-16T09:25:02.760Z,71.63
2022-10-16T09:27:32.064Z,74.13
2022-10-16T09:30:14.497Z,76.13
2022-10-16T09:32:43.966Z,76.85
2022-10-16T09:35:17.376Z,79.86
2022-10-16T09:37:47.024Z,78.32
2022-10-16T09:40:25.325Z,76.85
2022-10-16T09:42:58.835Z,76.24
2022-10-16T09:45:26.761Z,77.40
2022-10-16T09:47:57.735Z,75.68
2022-10-16T09:50:28.199Z,73.83
2022-10-16T09:53:07.741Z,71.25
2022-10-16T09:55:35.508Z,69.59
2022-10-16T09:58:04.433Z,67.15
2022-10-16T10:00:33.054Z,64.97
2022-10-16T10:03:00.619Z,62.59
2022-10-16T10:05:30.650Z,60.97
2022-10-16T10:08:00.915Z,59.51
2022-10-16T10:10:30.703Z,61.04
2022-10-16T10:12:59.311Z,60.40
2022-10-16T10:15:35.341Z,59.08
2022-10-16T10:18:04.122Z,57.83
2022-10-16T10:20:35.240Z,58.90
2022-10-16T10:23:03.797Z,61.72
2022-10-16T10:25:44.749Z,63.35
2022-10-16T10:28:43.125Z,66.23
2022-10-16T10:31:16.565Z,65.67
2022-10-16T10:33:49.314Z,65.58
2022-10-16T10:36:27.075Z,65.03
2022-10-16T10:38:59.480Z,63.17
2022-10-16T10:42:02.406Z,60.05
2022-10-16T10:44:50.387Z,61.75
2022-10-16T10:47:28.597Z,64.66
2022-10-16T10:50:08.890Z,60.08
2022-10-16T10:52:51.161Z,56.63
2022-10-16T10:55:26.619Z,53.70
2022-10-16T10:58:30.019Z,52.40
2022-10-16T11:01:08.772Z,56.29
2022-10-16T11:03:58.279Z,54.11
2022-10-16T11:06:30.080Z,51.49
2022-10-16T11:09:03.954Z,54.90
2022-10-16T11:11:36.851Z,60.64
2022-10-16T11:14:13.901Z,61.90
2022-10-16T11:16:46.513Z,63.78
2022-10-16T11:19:20.793Z,57.74
2022-10-16T11:21:58.170Z,58.35
2022-10-16T11:24:37.493Z,55.17
2022-10-16T11:27:10.744Z,53.65
2022-10-16T11:29:47.422Z,56.17
2022-10-16T11:32:24.452Z,57.34
2022-10-16T11:34:57.925Z,60.10
2022-10-16T11:37:29.906Z,62.84
2022-10-16T11:40:04.457Z,62.71
2022-10-16T11:42:38.728Z,64.68
2022-10-16T11:45:25.377Z,62.32
2022-10-16T11:48:00.103Z,62.15
2022-10-16T11:50:34.929Z,63.88
2022-10-16T11:53:10.726Z,64.19
2022-10-16T11:55:43.368Z,63.72
2022-10-16T11:58:24.684Z,64.58
2022-10-16T12:01:00.768Z,64.26
2022-10-16T12:03:33.891Z,65.26
2022-10-16T12:06:15.766Z,64.39
2022-10-16T12:08:45.462Z,65.20
2022-10-16T12:11:32.516Z,64.98
2022-10-16T12:14:09.059Z,65.55
2022-10-16T12:16:39.859Z,65.37
2022-10-16T12:19:15.863Z,64.54
2022-10-16T12:21:45.587Z,64.24
2022-10-16T12:24:29.381Z,64.06
2022-10-16T12:26:57.163Z,63.81
2022-10-16T12:29:34.066Z,62.19
2022-10-16T12:32:02.422Z,59.73
2022-10-16T12:34:34.446Z,60.22
2022-10-16T12:37:15.088Z,63.14
2022-10-16T12:39:43.367Z,61.06
2022-10-16T12:42:32.621Z,63.03
2022-10-16T12:45:00.227Z,63.06
2022-10-16T12:47:39.172Z,63.32
2022-10-16T12:50:26.560Z,62.32
2022-10-16T12:52:55.521Z,61.64
2022-10-16T12:55:24.725Z,64.79
2022-10-16T12:58:11.509Z,64.11
2022-10-16T13:00:46.513Z,64.53
2022-10-16T13:03:39.920Z,65.48
2022-10-16T13:06:19.281Z,66.67
2022-10-16T13:09:09.202Z,67.05
2022-10-16T13:11:55.109Z,68.01
2022-10-16T13:14:47.857Z,68.43
2022-10-16T13:17:24.504Z,68.12
2022-10-16T13:20:01.396Z,68.11
2022-10-16T13:22:35.701Z,69.13
2022-10-16T13:25:19.962Z,68.08
2022-10-16T13:27:55.964Z,69.30
2022-10-16T13:30:28.346Z,69.33
2022-10-16T13:33:02.885Z,68.91
2022-10-16T13:35:32.410Z,69.39
2022-10-16T13:38:13.306Z,69.69
2022-10-16T13:40:52.766Z,70.01
2022-10-16T13:43:24.081Z,69.66
2022-10-16T13:45:56.972Z,69.83
2022-10-16T13:48:24.571Z,68.98
2022-10-16T13:51:02.749Z,68.60
2022-10-16T13:53:32.933Z,68.32
2022-10-16T13:56:03.855Z,68.19
2022-10-16T13:58:31.646Z,68.41
2022-10-16T14:01:01.460Z,67.71
2022-10-16T14:03:30.434Z,68.32
2022-10-16T14:06:01.337Z,68.54
2022-10-16T14:08:31.394Z,67.97
2022-10-16T14:11:00.769Z,68.14
2022-10-16T14:13:36.142Z,68.73
2022-10-16T14:16:09.364Z,68.89
2022-10-16T14:18:39.419Z,68.96
2022-10-16T14:21:08.508Z,68.74
2022-10-16T14:23:39.246Z,69.50
2022-10-16T14:26:18.413Z,69.21
2022-10-16T14:28:49.565Z,69.92
2022-10-16T14:31:56.150Z,70.09
2022-10-16T14:34:34.361Z,69.66
2022-10-16T14:39:41.639Z,67.42
2022-10-16T14:42:17.043Z,68.25
2022-10-16T14:44:46.214Z,68.73
2022-10-16T14:47:16.403Z,68.40
2022-10-16T14:49:44.411Z,67.91
2022-10-16T14:52:13.408Z,69.08
2022-10-16T14:54:41.935Z,67.79
2022-10-16T14:57:18.950Z,67.21
2022-10-16T14:59:49.145Z,67.36
2022-10-16T15:02:24.690Z,67.36
2022-10-16T15:04:52.524Z,67.25
2022-10-16T15:07:20.533Z,66.72
2022-10-16T15:09:49.347Z,66.54
2022-10-16T15:12:17.257Z,67.40
2022-10-16T15:14:44.836Z,66.75
2022-10-16T15:17:15.445Z,65.96
2022-10-16T15:19:45.038Z,66.96
2022-10-16T15:22:13.281Z,68.17
2022-10-16T15:24:40.885Z,69.36
2022-10-16T15:27:08.413Z,69.65
2022-10-16T15:29:35.954Z,70.55
2022-10-16T15:32:03.503Z,71.12
2022-10-16T15:34:32.411Z,70.73
2022-10-16T15:37:00.759Z,72.03
2022-10-16T15:39:28.386Z,71.57
2022-10-16T15:41:55.990Z,70.39
2022-10-16T15:44:24.166Z,71.16
2022-10-16T15:46:51.698Z,71.43
2022-10-16T15:49:19.323Z,72.23
2022-10-16T15:51:48.227Z,72.39
2022-10-16T15:54:16.135Z,73.09
2022-10-16T15:56:43.665Z,73.93
2022-10-16T15:59:11.331Z,74.37
2022-10-16T16:01:39.235Z,74.64
2022-10-16T16:04:15.427Z,75.59
2022-10-16T16:06:54.574Z,75.32
2022-10-16T16:09:22.096Z,76.04
2022-10-16T16:11:52.115Z,76.75
2022-10-16T16:14:19.907Z,77.89
2022-10-16T16:16:47.514Z,77.76
2022-10-16T16:19:17.021Z,76.75
2022-10-16T16:21:44.549Z,77.11
2022-10-16T16:24:13.442Z,76.70
2022-10-16T16:26:44.346Z,77.37
2022-10-16T16:29:15.112Z,78.04
2022-10-16T16:31:43.558Z,78.49
2022-10-16T16:34:11.450Z,79.80
2022-10-16T16:36:39.793Z,79.75
2022-10-16T16:39:07.504Z,80.82
2022-10-16T16:41:36.386Z,81.58
2022-10-16T16:44:05.810Z,82.19
2022-10-16T16:46:33.952Z,82.04
2022-10-16T16:49:02.907Z,82.27
2022-10-16T16:51:30.632Z,81.86
2022-10-16T16:53:58.178Z,81.71
2022-10-16T16:56:26.769Z,82.12
2022-10-16T16:58:57.499Z,81.83
2022-10-16T17:01:27.296Z,81.90
2022-10-16T17:03:56.724Z,82.01
2022-10-16T17:06:26.365Z,82.92
2022-10-16T17:08:54.109Z,83.01
2022-10-16T17:11:23.596Z,83.67
2022-10-16T17:13:55.636Z,83.72
2022-10-16T17:16:28.708Z,84.44
2022-10-16T17:18:56.461Z,84.44
2022-10-16T17:21:24.047Z,84.57
2022-10-16T17:23:53.687Z,84.74
2022-10-16T17:26:21.494Z,85.01
2022-10-16T17:28:53.158Z,85.25
2022-10-16T17:31:23.768Z,86.23
2022-10-16T17:33:52.915Z,86.75
2022-10-16T17:36:21.403Z,87.66
2022-10-16T17:38:49.578Z,87.79
2022-10-16T17:41:18.922Z,88.74
2022-10-16T17:43:47.435Z,89.15
2022-10-16T17:46:17.080Z,89.24
2022-10-16T17:48:46.744Z,89.09
2022-10-16T17:51:18.138Z,89.50
2022-10-16T17:53:49.678Z,88.98
2022-10-16T17:56:17.350Z,89.51
2022-10-16T17:58:47.772Z,89.24
2022-10-16T18:01:21.609Z,89.94
2022-10-16T18:03:50.997Z,89.79
2022-10-16T18:06:22.905Z,90.08
2022-10-16T18:08:51.259Z,90.87
2022-10-16T18:11:19.178Z,90.80
2022-10-16T18:13:47.043Z,90.89
2022-10-16T18:16:16.504Z,91.08
2022-10-16T18:18:45.866Z,91.19
2022-10-16T18:21:16.312Z,91.15
2022-10-16T18:23:50.887Z,91.28
2022-10-16T18:26:21.605Z,91.18
2022-10-16T18:28:50.969Z,91.69
2022-10-16T18:31:18.925Z,91.76
2022-10-16T18:33:50.372Z,91.33
2022-10-16T18:36:19.998Z,91.61
2022-10-16T18:38:49.453Z,92.15
2022-10-16T18:41:17.762Z,92.21
2022-10-16T18:43:45.407Z,92.31
2022-10-16T18:46:15.873Z,92.54
2022-10-16T18:48:43.932Z,92.57
2022-10-16T18:51:13.889Z,92.80
2022-10-16T18:53:43.667Z,92.73
2022-10-16T18:56:14.857Z,92.54
2022-10-16T18:58:43.575Z,92.45
2022-10-16T19:01:16.473Z,92.59
2022-10-16T19:03:45.060Z,92.67
2022-10-16T19:06:14.632Z,92.51
2022-10-16T19:08:43.444Z,92.33
2022-10-16T19:11:13.872Z,92.51
2022-10-16T19:13:41.655Z,92.47
2022-10-16T19:16:21.194Z,92.88
2022-10-16T19:18:50.687Z,92.71
2022-10-16T19:21:18.841Z,92.91
2022-10-16T19:23:46.660Z,92.54
2022-10-16T19:26:18.416Z,92.99
2022-10-16T19:28:47.029Z,92.82
2022-10-16T19:31:16.504Z,93.08
2022-10-16T19:33:44.582Z,93.25
2022-10-16T19:36:14.471Z,93.28
2022-10-16T19:38:43.362Z,93.21
2022-10-16T19:41:12.670Z,92.91
2022-10-16T19:43:41.988Z,92.81
2022-10-16T19:46:12.137Z,92.80
2022-10-16T19:48:41.082Z,92.78
2022-10-16T19:51:12.326Z,92.69
2022-10-16T19:53:40.064Z,92.73
2022-10-16T19:56:13.553Z,92.63
2022-10-16T19:58:43.225Z,92.93
2022-10-16T20:01:11.671Z,92.91
2022-10-16T20:03:40.455Z,92.56
2022-10-16T20:06:09.625Z,92.89
2022-10-16T20:08:39.436Z,92.89
2022-10-16T20:11:10.845Z,92.82
2022-10-16T20:13:41.555Z,93.09
2022-10-16T20:16:12.886Z,93.29
2022-10-16T20:18:40.926Z,92.95
2022-10-16T20:21:12.660Z,93.02
2022-10-16T20:23:41.217Z,93.41
2022-10-16T20:26:11.301Z,93.20
2022-10-16T20:28:41.237Z,93.38
2022-10-16T20:31:12.079Z,93.46
2022-10-16T20:33:39.736Z,93.78
2022-10-16T20:36:12.077Z,93.73
2022-10-16T20:38:40.134Z,93.50
2022-10-16T20:41:08.520Z,94.00
2022-10-16T20:43:37.002Z,93.75
2022-10-16T20:46:08.702Z,93.95
2022-10-16T20:48:40.969Z,94.01
2022-10-16T20:51:13.037Z,94.05
2022-10-16T20:53:40.734Z,94.28
2022-10-16T20:56:09.742Z,94.33
2022-10-16T20:58:37.917Z,94.67
2022-10-16T21:01:07.122Z,94.79
2022-10-16T21:03:34.814Z,94.89
2022-10-16T21:06:04.696Z,94.59
2022-10-16T21:08:35.430Z,94.39
2022-10-16T21:11:02.990Z,94.54
2022-10-16T21:13:30.784Z,94.46
2022-10-16T21:15:58.579Z,94.59
2022-10-16T21:18:26.115Z,94.33
2022-10-16T21:20:53.667Z,94.50
2022-10-16T21:23:22.598Z,94.50
2022-10-16T21:25:50.366Z,94.71
2022-10-16T21:28:18.330Z,94.70
2022-10-16T21:30:46.017Z,94.49
2022-10-16T21:33:13.561Z,94.67
2022-10-16T21:35:41.129Z,94.50
2022-10-16T21:38:08.711Z,94.69
2022-10-16T21:40:37.910Z,94.54
2022-10-16T21:43:05.469Z,94.71
2022-10-16T21:45:35.245Z,95.21
2022-10-16T21:48:02.778Z,94.96
2022-10-16T21:50:30.523Z,94.84
2022-10-16T21:52:58.043Z,94.83
2022-10-16T21:55:25.584Z,94.73
2022-10-16T21:57:54.446Z,94.48
2022-10-16T22:00:21.964Z,94.63
2022-10-16T22:02:49.483Z,94.80
2022-10-16T22:05:17.001Z,94.58
2022-10-16T22:07:44.534Z,95.04
2022-10-16T22:10:12.058Z,95.01
2022-10-16T22:12:40.547Z,94.94
2022-10-16T22:15:10.936Z,95.02
2022-10-16T22:17:39.396Z,94.97
2022-10-16T22:20:08.223Z,95.00
2022-10-16T22:22:35.760Z,94.89
2022-10-16T22:25:03.351Z,95.08
2022-10-16T22:27:30.998Z,95.09
2022-10-16T22:29:58.576Z,94.81
2022-10-16T22:32:27.532Z,95.06
2022-10-16T22:34:55.062Z,94.79
2022-10-16T22:37:22.589Z,95.10
2022-10-16T22:39:50.108Z,95.08
2022-10-16T22:42:17.633Z,94.98
2022-10-16T22:44:45.235Z,95.13
2022-10-16T22:47:12.767Z,95.03
2022-10-16T22:49:41.734Z,94.83
2022-10-16T22:52:09.266Z,94.81
2022-10-16T22:54:37.035Z,94.69
2022-10-16T22:57:04.963Z,94.80
2022-10-16T22:59:32.975Z,94.56
2022-10-16T23:02:00.607Z,94.28
2022-10-16T23:04:28.141Z,94.41
2022-10-16T23:06:57.006Z,94.33
2022-10-16T23:09:24.573Z,94.34
2022-10-16T23:11:52.109Z,93.89
2022-10-16T23:14:21.126Z,94.30
2022-10-16T23:16:48.697Z,93.99
2022-10-16T23:19:17.041Z,94.51
2022-10-16T23:21:44.574Z,94.58
2022-10-16T23:24:13.532Z,95.14
2022-10-16T23:26:41.140Z,94.94
2022-10-16T23:29:08.819Z,94.96
2022-10-16T23:31:36.650Z,94.78
2022-10-16T23:34:04.345Z,95.00
2022-10-16T23:36:31.869Z,94.75
2022-10-16T23:38:59.434Z,94.74
2022-10-16T23:41:28.365Z,95.04
2022-10-16T23:43:55.926Z,94.90
2022-10-16T23:48:55.941Z,94.94
2022-10-16T23:51:23.542Z,95.08
2022-10-16T23:53:52.418Z,94.91
2022-10-16T23:56:20.344Z,94.95
2022-10-16T23:58:49.228Z,94.94
